Terminal Aerodrome Forecast
Issued by NWS

Home | Current Version | Previous Version | Text Only | Print | Product List | Glossary On
Versions: 1 2 3 4 5 6 7 8 9 10 11 12 13 14 15 16 17 18 19 20 21 22 23 24 25 26
000
FTUS44 KHGX 260259 AAA
TAFIAH
TAF AMD
KIAH 260259Z 2603/2706 16013KT P6SM SCT025 BKN040
     FM260600 17015KT P6SM BKN015
     FM261500 21015KT P6SM SCT015 BKN025
     FM261800 22016KT P6SM BKN030
     FM262100 30012G22KT P6SM SCT040
     FM270000 34011KT P6SM FEW080=

USA.gov is the U.S. government's official web portal to all federal, state and local government web resources and services.